»·PEaware :: N37WJ KSBP-KSAC

N37WJ :: KSBP-KSAC

FLIGHT INFORMATION

Flight Status: Arrived
Operator: Privately registered:
United States
More flights under this callsign
Pilot: Ryan C. (15122)
Aircraft: Unknown
(EPIC)
More flights by this aircraft type
Origin: KSBP San Luis Co Regl
United States
Destination: KSAC Sacramento Executive
United States
More flights between these airports :: More routes between these airports
Route: PRB PXN LIN
File this flight plan on PilotEdge
Remarks:
Altitude:
(Current/Filed)
20,000ft
Speed:
(Current/Filed)
300kts
Departed: 31-Jul-18 09:44 AM
Arrived: 31-Jul-18 10:31 AM
Distance/Time
Traveled:
201nm/0:47
Distance/Time
To Go:
Arrived

Flight Plot

Page will automatically refresh every two minutes.

Flight plan parsing failed; only flown route is shown


Map Options




Map Legend


Flown Route
Filed Route
Departure Airport
Arrival Airport
Navaid (VOR, NDB)
Fix

Horizontal Profiles

Position Reports

Time Latitude Longitude Heading Altitude Ground
Speed
31-Jul-18 09:28 35.238620 -120.639163 269 194ft 0kts
31-Jul-18 09:29 35.238620 -120.639163 269 194ft 0kts
31-Jul-18 09:30 35.238620 -120.639163 269 194ft 0kts
31-Jul-18 09:31 35.238620 -120.639163 269 194ft 0kts
31-Jul-18 09:32 35.238620 -120.639163 269 194ft 0kts
31-Jul-18 09:33 35.238620 -120.639163 269 194ft 0kts
31-Jul-18 09:34 35.238620 -120.639163 269 194ft 0kts
31-Jul-18 09:35 35.238620 -120.639190 267 193ft 0kts
31-Jul-18 09:36 35.238620 -120.639190 267 193ft 0kts
31-Jul-18 09:37 35.238620 -120.639190 267 193ft 0kts
31-Jul-18 09:38 35.238285 -120.639820 208 191ft 2kts
31-Jul-18 09:39 35.236469 -120.637556 125 200ft 13kts
31-Jul-18 09:40 35.233738 -120.632794 124 212ft 15kts
31-Jul-18 09:41 35.233240 -120.632403 201 212ft 0kts
31-Jul-18 09:42 35.233240 -120.632403 201 212ft 0kts
31-Jul-18 09:43 35.233240 -120.632403 201 212ft 0kts
31-Jul-18 09:44 35.232874 -120.633180 304 211ft 0kts
31-Jul-18 09:45 35.249245 -120.661296 306 1668ft 168kts
31-Jul-18 09:46 35.278976 -120.714591 303 4492ft 210kts
31-Jul-18 09:47 35.320105 -120.759535 14 7368ft 216kts
31-Jul-18 09:48 35.373734 -120.731113 19 10261ft 208kts
31-Jul-18 09:49 35.426755 -120.710754 16 13096ft 196kts
31-Jul-18 09:50 35.481273 -120.691844 16 15446ft 222kts
31-Jul-18 09:51 35.541676 -120.671374 17 17938ft 229kts
31-Jul-18 09:52 35.603003 -120.650681 17 20027ft 244kts
31-Jul-18 09:53 35.678182 -120.630688 357 20065ft 302kts
31-Jul-18 09:54 35.765683 -120.640811 354 20056ft 328kts
31-Jul-18 09:55 35.857680 -120.653791 354 20055ft 337kts
31-Jul-18 09:56 35.951271 -120.667268 353 20055ft 340kts
31-Jul-18 09:57 36.045039 -120.680825 353 20056ft 340kts
31-Jul-18 09:58 36.134642 -120.693813 353 20053ft 340kts
31-Jul-18 09:59 36.228496 -120.707447 353 20052ft 340kts
31-Jul-18 10:00 36.321365 -120.720971 353 20053ft 340kts
31-Jul-18 10:01 36.415159 -120.734662 353 20027ft 341kts
31-Jul-18 10:02 36.509215 -120.748424 353 20005ft 342kts
31-Jul-18 10:03 36.603207 -120.762212 353 20000ft 341kts
31-Jul-18 10:04 36.697587 -120.776091 353 20000ft 341kts
31-Jul-18 10:05 36.791316 -120.791091 353 20005ft 341kts
31-Jul-18 10:06 36.885092 -120.806383 353 20011ft 341kts
31-Jul-18 10:07 36.979075 -120.821748 353 20015ft 341kts
31-Jul-18 10:08 37.072972 -120.837114 351 19998ft 343kts
31-Jul-18 10:09 37.161776 -120.851742 351 19980ft 343kts
31-Jul-18 10:10 37.258133 -120.867652 351 18751ft 359kts
31-Jul-18 10:11 37.356481 -120.883895 351 17052ft 350kts
31-Jul-18 10:12 37.450544 -120.899473 352 15351ft 337kts
31-Jul-18 10:13 37.542217 -120.914695 352 14000ft 321kts
31-Jul-18 10:14 37.626959 -120.928804 352 13990ft 299kts
31-Jul-18 10:15 37.708468 -120.942408 352 13990ft 294kts
31-Jul-18 10:16 37.789273 -120.955923 352 13992ft 292kts
31-Jul-18 10:17 37.870592 -120.969554 352 13354ft 305kts
31-Jul-18 10:18 37.954687 -120.983674 352 11860ft 305kts
31-Jul-18 10:19 38.037913 -120.997670 351 10373ft 303kts
31-Jul-18 10:20 38.101110 -121.047623 313 10040ft 266kts
31-Jul-18 10:21 38.151462 -121.117834 310 10027ft 274kts
31-Jul-18 10:22 38.201400 -121.191095 309 10007ft 274kts
31-Jul-18 10:23 38.251832 -121.265758 309 9400ft 292kts
31-Jul-18 10:24 38.301609 -121.339650 309 7891ft 259kts
31-Jul-18 10:25 38.347358 -121.407772 310 6385ft 249kts
31-Jul-18 10:26 38.390141 -121.471551 310 4658ft 219kts
31-Jul-18 10:27 38.424673 -121.523127 311 3995ft 157kts
31-Jul-18 10:28 38.460688 -121.536017 15 2628ft 148kts
31-Jul-18 10:29 38.485471 -121.548674 223 1249ft 120kts
31-Jul-18 10:30 38.479846 -121.524530 53 648ft 109kts
31-Jul-18 10:31 38.500441 -121.504668 33 153ft 88kts
31-Jul-18 10:32 38.511366 -121.497220 272 20ft 11kts
31-Jul-18 10:33 38.512057 -121.500980 270 20ft 0kts
31-Jul-18 10:34 38.512057 -121.500980 270 20ft 0kts
31-Jul-18 10:35 38.512057 -121.500980 270 20ft 0kts
31-Jul-18 10:36 38.512057 -121.500980 270 20ft 0kts
31-Jul-18 10:37 38.512057 -121.500980 270 20ft 0kts
31-Jul-18 10:38 38.512057 -121.500980 270 20ft 0kts

Navigation Log

Ident Type
Flight plan parsing failed, navigation log unavailable